createdAt,value
2023-04-12T00:01:31.025Z,20.07
2023-04-12T00:04:00.519Z,16.90
2023-04-12T00:06:32.925Z,17.23
2023-04-12T00:09:02.387Z,17.70
2023-04-12T00:11:33.562Z,16.47
2023-04-12T00:14:04.201Z,17.23
2023-04-12T00:16:33.420Z,17.90
2023-04-12T00:19:03.780Z,17.23
2023-04-12T00:21:32.956Z,16.07
2023-04-12T00:24:02.450Z,16.23
2023-04-12T00:26:31.690Z,16.27
2023-04-12T00:29:01.417Z,16.87
2023-04-12T00:31:32.403Z,18.00
2023-04-12T00:34:04.486Z,17.13
2023-04-12T00:36:33.716Z,17.87
2023-04-12T00:39:02.835Z,17.67
2023-04-12T00:41:32.113Z,17.40
2023-04-12T00:44:01.315Z,16.80
2023-04-12T00:46:32.304Z,15.53
2023-04-12T00:49:01.869Z,13.13
2023-04-12T00:51:33.569Z,12.93
2023-04-12T00:54:02.888Z,12.83
2023-04-12T00:56:32.804Z,13.20
2023-04-12T00:59:02.204Z,13.57
2023-04-12T01:01:33.389Z,13.90
2023-04-12T01:04:05.446Z,13.37
2023-04-12T01:06:45.006Z,13.33
2023-04-12T01:09:21.966Z,13.70
2023-04-12T01:12:01.927Z,14.17
2023-04-12T01:14:47.314Z,15.00
2023-04-12T01:17:25.213Z,14.70
2023-04-12T01:19:59.822Z,14.40
2023-04-12T01:23:11.967Z,15.47
2023-04-12T01:25:54.790Z,15.30
2023-04-12T01:28:34.042Z,16.33
2023-04-12T01:31:05.043Z,15.50
2023-04-12T01:33:37.404Z,15.23
2023-04-12T01:36:12.243Z,16.20
2023-04-12T01:38:43.073Z,15.30
2023-04-12T01:41:14.334Z,15.03
2023-04-12T01:43:45.472Z,14.23
2023-04-12T01:46:17.239Z,15.47
2023-04-12T01:48:50.497Z,15.83
2023-04-12T01:51:29.555Z,15.67
2023-04-12T01:54:03.741Z,16.57
2023-04-12T01:56:36.110Z,15.00
2023-04-12T01:59:09.491Z,15.30
2023-04-12T02:01:39.252Z,15.13
2023-04-12T02:04:09.753Z,15.70
2023-04-12T02:06:41.012Z,16.10
2023-04-12T02:09:11.267Z,15.53
2023-04-12T02:11:40.536Z,15.37
2023-04-12T02:14:13.836Z,14.87
2023-04-12T02:16:44.959Z,15.20
2023-04-12T02:19:14.526Z,14.30
2023-04-12T02:21:46.371Z,14.83
2023-04-12T02:24:17.656Z,13.73
2023-04-12T02:26:50.052Z,13.23
2023-04-12T02:29:22.925Z,13.80
2023-04-12T02:31:52.759Z,13.13
2023-04-12T02:34:23.806Z,12.90
2023-04-12T02:37:00.295Z,13.60
2023-04-12T02:39:32.524Z,13.43
2023-04-12T02:42:02.783Z,13.33
2023-04-12T02:44:33.478Z,14.07
2023-04-12T02:47:14.943Z,15.63
2023-04-12T02:49:48.008Z,16.13
2023-04-12T02:52:19.623Z,15.30
2023-04-12T02:55:18.640Z,16.63
2023-04-12T02:57:48.823Z,15.97
2023-04-12T03:00:21.847Z,16.07
2023-04-12T03:02:54.225Z,15.37
2023-04-12T03:05:27.652Z,15.20
2023-04-12T03:07:57.649Z,15.10
2023-04-12T03:10:35.073Z,15.27
2023-04-12T03:13:06.032Z,15.40
2023-04-12T03:15:43.939Z,15.87
2023-04-12T03:18:13.604Z,16.90
2023-04-12T03:20:49.416Z,16.60
2023-04-12T03:23:19.644Z,17.17
2023-04-12T03:25:54.207Z,17.70
2023-04-12T03:28:37.058Z,17.33
2023-04-12T03:31:10.857Z,18.87
2023-04-12T03:33:48.202Z,18.63
2023-04-12T03:36:24.428Z,18.50
2023-04-12T03:38:58.821Z,17.60
2023-04-12T03:41:29.882Z,18.97
2023-04-12T03:44:00.200Z,21.60
2023-04-12T03:46:31.325Z,18.63
2023-04-12T03:49:05.234Z,19.23
2023-04-12T03:51:35.260Z,17.67
2023-04-12T03:54:06.291Z,19.27
2023-04-12T03:56:56.845Z,16.80
2023-04-12T03:59:36.634Z,17.33
2023-04-12T04:02:07.978Z,18.13
2023-04-12T04:04:42.118Z,18.77
2023-04-12T04:07:15.085Z,19.80
2023-04-12T04:09:46.921Z,18.83
2023-04-12T04:12:16.692Z,19.30
2023-04-12T04:14:50.974Z,19.93
2023-04-12T04:17:35.755Z,18.90
2023-04-12T04:20:07.657Z,19.23
2023-04-12T04:22:39.161Z,20.23
2023-04-12T04:25:09.404Z,19.63
2023-04-12T04:27:45.021Z,20.23
2023-04-12T04:30:17.181Z,21.77
2023-04-12T04:32:50.126Z,24.03
2023-04-12T04:35:24.478Z,20.93
2023-04-12T04:38:17.050Z,21.77
2023-04-12T04:40:46.819Z,23.40
2023-04-12T04:43:19.086Z,20.37
2023-04-12T04:45:49.914Z,19.97
2023-04-12T04:48:21.592Z,21.20
2023-04-12T04:50:51.962Z,23.20
2023-04-12T04:53:24.374Z,23.63
2023-04-12T04:56:00.290Z,22.00
2023-04-12T04:58:34.772Z,20.03
2023-04-12T05:01:04.000Z,20.17
2023-04-12T05:03:35.500Z,19.30
2023-04-12T05:06:05.439Z,20.80
2023-04-12T05:08:36.540Z,22.50
2023-04-12T05:11:06.588Z,23.30
2023-04-12T05:13:35.820Z,21.57
2023-04-12T05:16:08.523Z,20.40
2023-04-12T05:18:39.562Z,19.67
2023-04-12T05:21:09.247Z,21.37
2023-04-12T05:23:43.286Z,20.70
2023-04-12T05:26:14.194Z,21.40
2023-04-12T05:28:47.698Z,21.33
2023-04-12T05:31:18.362Z,19.67
2023-04-12T05:33:49.887Z,22.50
2023-04-12T05:36:20.172Z,23.43
2023-04-12T05:38:49.562Z,22.13
2023-04-12T05:41:18.763Z,22.00
2023-04-12T05:43:49.462Z,22.73
2023-04-12T05:46:19.048Z,54.30
2023-04-12T05:48:53.697Z,26.57
2023-04-12T05:51:34.091Z,22.47
2023-04-12T05:54:10.951Z,21.13
2023-04-12T05:56:41.343Z,21.60
2023-04-12T05:59:11.736Z,21.47
2023-04-12T06:01:43.060Z,20.67
2023-04-12T06:04:14.216Z,25.30
2023-04-12T06:06:44.712Z,23.47
2023-04-12T06:09:15.327Z,23.07
2023-04-12T06:11:44.618Z,21.37
2023-04-12T06:14:14.377Z,21.70
2023-04-12T06:16:44.045Z,20.77
2023-04-12T06:19:14.804Z,21.73
2023-04-12T06:21:44.240Z,21.23
2023-04-12T06:24:13.493Z,20.73
2023-04-12T06:26:46.957Z,22.97
2023-04-12T06:29:17.400Z,20.40
2023-04-12T06:31:48.681Z,20.80
2023-04-12T06:34:19.899Z,20.80
2023-04-12T06:36:49.729Z,22.90
2023-04-12T06:39:19.112Z,21.27
2023-04-12T06:41:50.609Z,19.77
2023-04-12T06:44:22.600Z,27.50
2023-04-12T06:46:51.956Z,21.47
2023-04-12T06:49:22.688Z,19.97
2023-04-12T06:51:52.166Z,20.60
2023-04-12T06:54:21.487Z,20.63
2023-04-12T06:56:50.774Z,21.67
2023-04-12T06:59:20.987Z,19.57
2023-04-12T07:01:50.916Z,21.57
2023-04-12T07:04:21.981Z,20.07
2023-04-12T07:06:52.938Z,19.97
2023-04-12T07:09:22.384Z,19.93
2023-04-12T07:11:51.695Z,19.03
2023-04-12T07:14:20.956Z,20.03
2023-04-12T07:17:01.241Z,21.53
2023-04-12T07:19:31.868Z,18.87
2023-04-12T07:22:01.404Z,19.93
2023-04-12T07:24:30.879Z,19.37
2023-04-12T07:27:00.210Z,19.23
2023-04-12T07:29:29.562Z,20.40
2023-04-12T07:32:01.949Z,19.93
2023-04-12T07:34:32.838Z,20.67
2023-04-12T07:37:02.622Z,19.43
2023-04-12T07:39:32.076Z,22.03
2023-04-12T07:42:01.650Z,20.43
2023-04-12T07:44:31.755Z,21.40
2023-04-12T07:47:01.017Z,19.30
2023-04-12T07:49:31.645Z,19.03
2023-04-12T07:52:00.824Z,19.73
2023-04-12T07:54:30.440Z,19.50
2023-04-12T07:57:00.934Z,20.97
2023-04-12T07:59:30.638Z,17.37
2023-04-12T08:01:59.958Z,18.90
2023-04-12T08:04:29.512Z,17.80
2023-04-12T08:07:00.371Z,18.30
2023-04-12T08:09:30.472Z,17.60
2023-04-12T08:11:59.633Z,18.33
2023-04-12T08:14:28.940Z,18.97
2023-04-12T08:16:58.627Z,18.20
2023-04-12T08:19:27.938Z,19.83
2023-04-12T08:21:57.180Z,19.70
2023-04-12T08:24:28.013Z,18.57
2023-04-12T08:26:57.977Z,20.07
2023-04-12T08:29:27.179Z,18.53
2023-04-12T08:31:56.637Z,18.33
2023-04-12T08:34:26.047Z,19.37
2023-04-12T08:36:55.405Z,19.20
2023-04-12T08:39:24.600Z,18.90
2023-04-12T08:41:58.142Z,19.37
2023-04-12T08:44:37.285Z,19.30
2023-04-12T08:47:08.329Z,19.23
2023-04-12T08:49:37.974Z,19.67
2023-04-12T08:52:08.665Z,18.80
2023-04-12T08:54:38.817Z,18.13
2023-04-12T08:57:10.686Z,18.83
2023-04-12T08:59:42.565Z,18.43
2023-04-12T09:02:12.172Z,19.67
2023-04-12T09:04:50.396Z,19.60
2023-04-12T09:07:23.782Z,19.53
2023-04-12T09:09:53.116Z,20.67
2023-04-12T09:12:24.458Z,18.37
2023-04-12T09:15:09.456Z,18.90
2023-04-12T09:17:39.341Z,22.73
2023-04-12T09:20:25.966Z,21.03
2023-04-12T09:22:55.957Z,23.20
2023-04-12T09:25:41.814Z,20.53
2023-04-12T09:28:23.743Z,20.87
2023-04-12T09:30:53.704Z,19.70
2023-04-12T09:33:24.297Z,20.03
2023-04-12T09:36:02.680Z,20.80
2023-04-12T09:38:32.545Z,20.67
2023-04-12T09:41:25.042Z,18.17
2023-04-12T09:43:57.537Z,18.80
2023-04-12T09:46:27.154Z,18.93
2023-04-12T09:48:59.161Z,19.47
2023-04-12T09:51:30.316Z,17.77
2023-04-12T09:54:02.229Z,18.27
2023-04-12T09:56:33.052Z,18.60
2023-04-12T09:59:06.064Z,18.57
2023-04-12T10:01:37.449Z,18.53
2023-04-12T10:04:09.187Z,20.27
2023-04-12T10:06:38.842Z,18.03
2023-04-12T10:09:09.153Z,18.73
2023-04-12T10:11:40.790Z,18.47
2023-04-12T10:14:12.320Z,19.07
2023-04-12T10:16:43.690Z,18.63
2023-04-12T10:19:15.596Z,19.20
2023-04-12T10:21:44.923Z,19.13
2023-04-12T10:24:14.615Z,18.97
2023-04-12T10:26:44.643Z,17.67
2023-04-12T10:29:29.541Z,18.33
2023-04-12T10:32:00.633Z,19.47
2023-04-12T10:34:30.649Z,19.90
2023-04-12T10:37:00.791Z,18.83
2023-04-12T10:39:42.499Z,18.97
2023-04-12T10:42:23.257Z,18.60
2023-04-12T10:44:55.274Z,19.17
2023-04-12T10:48:01.985Z,16.87
2023-04-12T10:50:32.435Z,17.58
2023-04-12T10:53:26.457Z,19.17
2023-04-12T10:55:56.020Z,17.07
2023-04-12T10:58:58.567Z,17.20
2023-04-12T11:01:33.686Z,16.77
2023-04-12T11:04:12.730Z,16.50
2023-04-12T11:06:59.379Z,15.63
2023-04-12T11:10:02.900Z,15.73
2023-04-12T11:12:36.580Z,16.20
2023-04-12T11:15:07.120Z,15.95
2023-04-12T11:17:58.178Z,15.88
2023-04-12T11:20:30.003Z,15.13
2023-04-12T11:23:02.752Z,15.90
2023-04-12T11:25:33.601Z,15.18
2023-04-12T11:28:11.071Z,15.63
2023-04-12T11:30:52.300Z,15.02
2023-04-12T11:33:40.044Z,15.93
2023-04-12T11:36:14.334Z,15.25
2023-04-12T11:38:46.440Z,14.18
2023-04-12T11:41:17.164Z,15.93
2023-04-12T11:43:47.745Z,18.17
2023-04-12T11:46:18.640Z,15.35
2023-04-12T11:48:50.196Z,15.18
2023-04-12T11:51:25.458Z,14.27
2023-04-12T11:53:56.390Z,15.13
2023-04-12T11:56:26.134Z,14.98
2023-04-12T11:58:55.731Z,14.05
2023-04-12T12:01:25.836Z,13.48
2023-04-12T12:03:58.152Z,14.57
2023-04-12T12:06:29.639Z,13.48
2023-04-12T12:09:08.120Z,14.40
2023-04-12T12:11:37.731Z,13.38
2023-04-12T12:14:15.688Z,13.38
2023-04-12T12:16:53.778Z,13.93
2023-04-12T12:19:43.457Z,13.55
2023-04-12T12:22:18.952Z,13.43
2023-04-12T12:24:56.401Z,12.88
2023-04-12T12:27:37.338Z,12.75
2023-04-12T12:30:13.711Z,13.07
2023-04-12T12:32:45.202Z,12.73
2023-04-12T12:35:16.786Z,12.80
2023-04-12T12:37:53.624Z,12.32
2023-04-12T12:40:32.975Z,12.35
2023-04-12T12:43:02.459Z,12.70
2023-04-12T12:45:34.068Z,13.25
2023-04-12T12:48:05.168Z,13.18
2023-04-12T12:50:36.891Z,12.75
2023-04-12T12:53:07.061Z,13.05
2023-04-12T12:55:36.294Z,11.38
2023-04-12T12:58:07.384Z,12.38
2023-04-12T13:00:37.492Z,13.60
2023-04-12T13:03:07.102Z,10.93
2023-04-12T13:05:38.165Z,11.18
2023-04-12T13:08:07.491Z,12.07
2023-04-12T13:10:36.983Z,11.30
2023-04-12T13:13:06.671Z,12.05
2023-04-12T13:15:35.962Z,12.65
2023-04-12T13:18:05.374Z,14.43
2023-04-12T13:20:34.709Z,11.65
2023-04-12T13:23:05.168Z,11.70
2023-04-12T13:25:34.560Z,11.93
2023-04-12T13:28:03.891Z,12.50
2023-04-12T13:30:33.074Z,12.05
2023-04-12T13:33:02.295Z,11.88
2023-04-12T13:35:31.793Z,11.95
2023-04-12T13:38:00.977Z,11.70
2023-04-12T13:40:31.975Z,11.90
2023-04-12T13:43:01.178Z,11.73
2023-04-12T13:45:32.813Z,11.27
2023-04-12T13:48:03.738Z,10.68
2023-04-12T13:50:33.178Z,11.13
2023-04-12T13:53:02.464Z,10.10
2023-04-12T13:55:33.112Z,10.65
2023-04-12T13:58:02.355Z,9.80
2023-04-12T14:00:31.605Z,10.93
2023-04-12T14:03:00.944Z,10.32
2023-04-12T14:05:30.307Z,10.43
2023-04-12T14:07:59.714Z,10.43
2023-04-12T14:10:28.987Z,9.77
2023-04-12T14:12:59.934Z,10.05
2023-04-12T14:15:29.116Z,10.27
2023-04-12T14:17:58.438Z,10.15
2023-04-12T14:20:27.802Z,11.15
2023-04-12T14:22:57.142Z,10.98
2023-04-12T14:25:26.226Z,11.13
2023-04-12T14:27:55.398Z,9.93
2023-04-12T14:30:27.432Z,10.90
2023-04-12T14:32:56.750Z,10.02
2023-04-12T14:35:26.182Z,11.02
2023-04-12T14:37:55.365Z,10.70
2023-04-12T14:40:24.729Z,10.32
2023-04-12T14:42:54.160Z,10.90
2023-04-12T14:45:23.525Z,10.65
2023-04-12T14:47:54.219Z,11.27
2023-04-12T14:50:24.085Z,10.82
2023-04-12T14:52:54.750Z,11.40
2023-04-12T14:55:24.180Z,11.50
2023-04-12T14:57:53.492Z,10.73
2023-04-12T15:00:23.547Z,11.27
2023-04-12T15:02:54.444Z,10.75
2023-04-12T15:05:24.346Z,11.07
2023-04-12T15:07:54.213Z,11.38
2023-04-12T15:10:23.902Z,12.52
2023-04-12T15:12:53.329Z,12.32
2023-04-12T15:15:23.130Z,10.77
2023-04-12T15:17:53.727Z,11.25
2023-04-12T15:20:23.105Z,11.65
2023-04-12T15:22:52.588Z,10.68
2023-04-12T15:25:22.186Z,10.95
2023-04-12T15:27:51.609Z,10.30
2023-04-12T15:30:20.919Z,11.10
2023-04-12T15:32:50.169Z,11.73
2023-04-12T15:35:26.660Z,10.77
2023-04-12T15:37:56.829Z,11.27
2023-04-12T15:40:26.392Z,10.82
2023-04-12T15:42:55.806Z,11.15
2023-04-12T15:45:25.527Z,13.10
2023-04-12T15:47:55.448Z,10.80
2023-04-12T15:50:26.256Z,10.48
2023-04-12T15:52:56.935Z,11.07
2023-04-12T15:55:26.621Z,11.83
2023-04-12T15:57:57.394Z,11.73
2023-04-12T16:00:27.518Z,13.60
2023-04-12T16:02:57.719Z,13.90
2023-04-12T16:05:28.763Z,16.37
2023-04-12T16:07:58.196Z,12.17
2023-04-12T16:10:28.473Z,12.23
2023-04-12T16:12:58.183Z,17.75
2023-04-12T16:15:27.829Z,11.93
2023-04-12T16:17:57.279Z,13.15
2023-04-12T16:20:28.380Z,11.93
2023-04-12T16:22:58.785Z,12.03
2023-04-12T16:25:29.879Z,12.27
2023-04-12T16:28:02.717Z,12.67
2023-04-12T16:30:33.682Z,11.10
2023-04-12T16:33:03.868Z,11.53
2023-04-12T16:35:35.494Z,11.90
2023-04-12T16:38:05.510Z,11.60
2023-04-12T16:40:36.472Z,11.80
2023-04-12T16:43:08.369Z,12.10
2023-04-12T16:45:40.151Z,11.93
2023-04-12T16:48:11.300Z,13.20
2023-04-12T16:50:47.102Z,13.53
2023-04-12T16:53:18.169Z,14.20
2023-04-12T16:55:50.254Z,14.23
2023-04-12T16:58:21.107Z,16.53
2023-04-12T17:00:51.928Z,15.87
2023-04-12T17:03:26.440Z,15.23
2023-04-12T17:06:01.377Z,15.70
2023-04-12T17:08:31.832Z,15.77
2023-04-12T17:11:03.394Z,16.47
2023-04-12T17:13:37.223Z,15.60
2023-04-12T17:16:08.705Z,14.93
2023-04-12T17:18:41.336Z,13.80
2023-04-12T17:21:14.729Z,15.10
2023-04-12T17:23:46.709Z,14.07
2023-04-12T17:26:17.719Z,14.20
2023-04-12T17:28:48.633Z,18.73
2023-04-12T17:31:21.275Z,18.33
2023-04-12T17:33:51.787Z,16.03
2023-04-12T17:36:24.260Z,13.97
2023-04-12T17:38:57.057Z,14.43
2023-04-12T17:41:28.669Z,13.27
2023-04-12T17:43:59.771Z,13.40
2023-04-12T17:46:30.693Z,13.77
2023-04-12T17:49:06.206Z,14.27
2023-04-12T17:51:38.614Z,13.90
2023-04-12T17:54:08.842Z,13.63
2023-04-12T17:56:39.624Z,13.43
2023-04-12T17:59:12.291Z,14.77
2023-04-12T18:01:43.643Z,13.50
2023-04-12T18:04:14.134Z,13.77
2023-04-12T18:06:47.406Z,14.30
2023-04-12T18:09:18.703Z,15.10
2023-04-12T18:11:48.994Z,14.53
2023-04-12T18:14:21.631Z,14.63
2023-04-12T18:16:53.487Z,15.23
2023-04-12T18:19:23.795Z,15.70
2023-04-12T18:21:55.735Z,15.50
2023-04-12T18:24:25.998Z,15.23
2023-04-12T18:27:01.510Z,14.90
2023-04-12T18:29:33.223Z,13.97
2023-04-12T18:32:05.787Z,14.93
2023-04-12T18:34:36.883Z,20.00
2023-04-12T18:37:08.570Z,13.57
2023-04-12T18:39:39.952Z,13.57
2023-04-12T18:42:10.716Z,12.33
2023-04-12T18:44:43.029Z,13.60
2023-04-12T18:47:12.704Z,13.10
2023-04-12T18:49:42.396Z,13.03
2023-04-12T18:52:14.639Z,12.70
2023-04-12T18:54:45.385Z,12.90
2023-04-12T18:57:17.807Z,14.23
2023-04-12T18:59:49.668Z,13.40
2023-04-12T20:11:38.231Z,15.33
2023-04-12T20:14:09.837Z,13.67
2023-04-12T20:16:43.327Z,13.67
2023-04-12T20:19:15.602Z,13.80
2023-04-12T20:21:48.170Z,13.90
2023-04-12T20:24:18.693Z,13.67
2023-04-12T20:26:55.330Z,13.27
2023-04-12T20:29:26.069Z,13.30
2023-04-12T20:31:57.329Z,13.40
2023-04-12T20:34:28.375Z,14.37
2023-04-12T20:37:00.791Z,13.40
2023-04-12T20:39:31.954Z,23.30
2023-04-12T20:42:03.535Z,18.53
2023-04-12T20:44:35.194Z,15.97
2023-04-12T20:47:04.979Z,13.23
2023-04-12T20:49:34.424Z,13.90
2023-04-12T20:52:04.548Z,12.97
2023-04-12T20:54:34.618Z,13.00
2023-04-12T20:57:05.611Z,13.13
2023-04-12T20:59:36.200Z,14.00
2023-04-12T21:02:05.403Z,12.97
2023-04-12T21:04:36.453Z,15.57
2023-04-12T21:07:06.315Z,13.30
2023-04-12T21:09:35.572Z,13.63
2023-04-12T21:12:08.690Z,16.23
2023-04-12T21:14:38.736Z,13.37
2023-04-12T21:17:08.195Z,13.73
2023-04-12T21:19:39.284Z,16.03
2023-04-12T21:22:08.954Z,13.73
2023-04-12T21:24:39.161Z,15.03
2023-04-12T21:27:10.173Z,14.50
2023-04-12T21:29:41.738Z,15.30
2023-04-12T21:32:11.515Z,15.80
2023-04-12T21:34:40.789Z,14.67
2023-04-12T21:37:10.457Z,16.53
2023-04-12T21:39:40.428Z,15.50
2023-04-12T21:42:11.028Z,13.80
2023-04-12T21:44:43.359Z,14.27
2023-04-12T21:47:13.181Z,13.53
2023-04-12T21:49:42.332Z,15.60
2023-04-12T21:52:11.550Z,13.67
2023-04-12T21:54:41.033Z,16.97
2023-04-12T21:57:11.592Z,15.53
2023-04-12T21:59:42.857Z,14.53
2023-04-12T22:02:13.196Z,13.90
2023-04-12T22:04:42.681Z,16.30
2023-04-12T22:07:13.344Z,15.03
2023-04-12T22:09:42.801Z,16.93
2023-04-12T22:12:14.316Z,13.93
2023-04-12T22:14:46.822Z,16.37
2023-04-12T22:17:16.747Z,21.37
2023-04-12T22:19:46.272Z,14.93
2023-04-12T22:22:15.675Z,22.83
2023-04-12T22:24:45.454Z,21.00
2023-04-12T22:27:16.588Z,21.50
2023-04-12T22:29:45.876Z,15.77
2023-04-12T22:32:15.052Z,18.23
2023-04-12T22:34:44.933Z,20.90
2023-04-12T22:37:14.915Z,20.27
2023-04-12T22:39:44.243Z,20.87
2023-04-12T22:42:13.983Z,18.93
2023-04-12T22:44:44.537Z,17.10
2023-04-12T22:47:13.865Z,15.23
2023-04-12T22:49:50.622Z,19.30
2023-04-12T22:52:19.835Z,16.10
2023-04-12T22:54:50.310Z,20.30
2023-04-12T22:57:19.512Z,20.40
2023-04-12T22:59:50.093Z,15.10
2023-04-12T23:02:19.463Z,16.20
2023-04-12T23:04:49.816Z,16.57
2023-04-12T23:07:19.091Z,16.03
2023-04-12T23:09:48.261Z,14.63
2023-04-12T23:12:17.681Z,16.67
2023-04-12T23:14:46.884Z,16.37
2023-04-12T23:17:19.897Z,15.73
2023-04-12T23:19:50.607Z,16.93
2023-04-12T23:22:48.694Z,13.97
2023-04-12T23:25:23.755Z,15.57
2023-04-12T23:27:53.148Z,15.83
2023-04-12T23:30:23.275Z,15.00
2023-04-12T23:32:54.766Z,15.73
2023-04-12T23:35:23.917Z,16.00
2023-04-12T23:37:53.651Z,15.70
2023-04-12T23:40:23.240Z,16.00
2023-04-12T23:42:52.436Z,21.30
2023-04-12T23:45:22.041Z,17.27
2023-04-12T23:47:52.792Z,18.73
2023-04-12T23:50:22.356Z,20.57
2023-04-12T23:52:51.525Z,21.20
2023-04-12T23:55:20.731Z,19.90
2023-04-12T23:57:49.873Z,18.23
